sensor_id;sensor_type;location;lat;lon;timestamp;temperature;humidity
32139;DHT22;18644;48.700;9.210;2023-03-01T00:01:08;2.00;51.10
32139;DHT22;18644;48.700;9.210;2023-03-01T00:03:36;2.00;51.20
32139;DHT22;18644;48.700;9.210;2023-03-01T00:06:06;2.00;51.20
32139;DHT22;18644;48.700;9.210;2023-03-01T00:08:33;2.00;51.30
32139;DHT22;18644;48.700;9.210;2023-03-01T00:11:02;2.00;51.20
32139;DHT22;18644;48.700;9.210;2023-03-01T00:13:30;2.00;51.20
32139;DHT22;18644;48.700;9.210;2023-03-01T00:15:58;1.90;51.20
32139;DHT22;18644;48.700;9.210;2023-03-01T00:18:25;1.90;51.20
32139;DHT22;18644;48.700;9.210;2023-03-01T00:20:52;1.90;51.20
32139;DHT22;18644;48.700;9.210;2023-03-01T00:23:21;1.90;51.80
32139;DHT22;18644;48.700;9.210;2023-03-01T00:25:48;1.90;51.30
32139;DHT22;18644;48.700;9.210;2023-03-01T00:28:16;1.90;51.50
32139;DHT22;18644;48.700;9.210;2023-03-01T00:30:43;1.80;51.60
32139;DHT22;18644;48.700;9.210;2023-03-01T00:33:11;1.80;51.70
32139;DHT22;18644;48.700;9.210;2023-03-01T00:35:38;1.90;51.90
32139;DHT22;18644;48.700;9.210;2023-03-01T00:38:05;1.80;52.00
32139;DHT22;18644;48.700;9.210;2023-03-01T00:40:34;1.90;52.10
32139;DHT22;18644;48.700;9.210;2023-03-01T00:43:02;1.90;52.20
32139;DHT22;18644;48.700;9.210;2023-03-01T00:45:29;1.90;52.20
32139;DHT22;18644;48.700;9.210;2023-03-01T00:47:57;1.90;52.20
32139;DHT22;18644;48.700;9.210;2023-03-01T00:50:24;1.90;52.20
32139;DHT22;18644;48.700;9.210;2023-03-01T00:52:53;1.90;52.10
32139;DHT22;18644;48.700;9.210;2023-03-01T00:55:20;1.90;52.20
32139;DHT22;18644;48.700;9.210;2023-03-01T00:57:48;1.90;52.20
32139;DHT22;18644;48.700;9.210;2023-03-01T01:00:16;1.80;52.20
32139;DHT22;18644;48.700;9.210;2023-03-01T01:02:43;1.80;52.20
32139;DHT22;18644;48.700;9.210;2023-03-01T01:05:11;1.80;52.20
32139;DHT22;18644;48.700;9.210;2023-03-01T01:07:38;1.80;52.20
32139;DHT22;18644;48.700;9.210;2023-03-01T01:10:06;1.80;52.30
32139;DHT22;18644;48.700;9.210;2023-03-01T01:12:34;1.80;52.40
32139;DHT22;18644;48.700;9.210;2023-03-01T01:15:02;1.80;52.40
32139;DHT22;18644;48.700;9.210;2023-03-01T01:17:30;1.80;52.40
32139;DHT22;18644;48.700;9.210;2023-03-01T01:19:56;1.70;52.40
32139;DHT22;18644;48.700;9.210;2023-03-01T01:22:23;1.70;52.40
32139;DHT22;18644;48.700;9.210;2023-03-01T01:24:50;1.80;52.50
32139;DHT22;18644;48.700;9.210;2023-03-01T01:27:17;1.70;52.50
32139;DHT22;18644;48.700;9.210;2023-03-01T01:29:44;1.70;52.50
32139;DHT22;18644;48.700;9.210;2023-03-01T01:32:12;1.70;52.50
32139;DHT22;18644;48.700;9.210;2023-03-01T01:34:39;1.70;52.50
32139;DHT22;18644;48.700;9.210;2023-03-01T01:37:06;1.70;52.60
32139;DHT22;18644;48.700;9.210;2023-03-01T01:39:33;1.70;52.60
32139;DHT22;18644;48.700;9.210;2023-03-01T01:42:00;1.70;52.70
32139;DHT22;18644;48.700;9.210;2023-03-01T01:44:28;1.70;52.70
32139;DHT22;18644;48.700;9.210;2023-03-01T01:46:59;1.70;52.80
32139;DHT22;18644;48.700;9.210;2023-03-01T01:49:32;1.70;52.80
32139;DHT22;18644;48.700;9.210;2023-03-01T01:52:08;1.70;52.90
32139;DHT22;18644;48.700;9.210;2023-03-01T01:54:40;1.70;53.00
32139;DHT22;18644;48.700;9.210;2023-03-01T01:57:13;1.70;53.00
32139;DHT22;18644;48.700;9.210;2023-03-01T01:59:44;1.70;53.10
32139;DHT22;18644;48.700;9.210;2023-03-01T02:02:15;1.70;53.10
32139;DHT22;18644;48.700;9.210;2023-03-01T02:04:44;1.70;53.10
32139;DHT22;18644;48.700;9.210;2023-03-01T02:07:15;1.80;53.30
32139;DHT22;18644;48.700;9.210;2023-03-01T02:09:46;1.80;53.40
32139;DHT22;18644;48.700;9.210;2023-03-01T02:12:14;1.80;53.50
32139;DHT22;18644;48.700;9.210;2023-03-01T02:14:42;1.90;53.60
32139;DHT22;18644;48.700;9.210;2023-03-01T02:17:10;1.90;53.60
32139;DHT22;18644;48.700;9.210;2023-03-01T02:19:48;2.00;53.70
32139;DHT22;18644;48.700;9.210;2023-03-01T02:22:24;2.00;53.80
32139;DHT22;18644;48.700;9.210;2023-03-01T02:25:01;2.10;53.80
32139;DHT22;18644;48.700;9.210;2023-03-01T02:27:41;2.10;53.80
32139;DHT22;18644;48.700;9.210;2023-03-01T02:30:16;2.20;53.90
32139;DHT22;18644;48.700;9.210;2023-03-01T02:32:44;2.20;53.80
32139;DHT22;18644;48.700;9.210;2023-03-01T02:35:13;2.20;53.80
32139;DHT22;18644;48.700;9.210;2023-03-01T02:37:42;2.30;53.90
32139;DHT22;18644;48.700;9.210;2023-03-01T02:40:12;2.30;53.80
32139;DHT22;18644;48.700;9.210;2023-03-01T02:42:47;2.40;53.80
32139;DHT22;18644;48.700;9.210;2023-03-01T02:45:18;2.50;53.80
32139;DHT22;18644;48.700;9.210;2023-03-01T02:47:45;2.50;53.70
32139;DHT22;18644;48.700;9.210;2023-03-01T02:50:22;2.50;53.70
32139;DHT22;18644;48.700;9.210;2023-03-01T02:53:03;2.60;53.70
32139;DHT22;18644;48.700;9.210;2023-03-01T02:55:32;2.60;53.60
32139;DHT22;18644;48.700;9.210;2023-03-01T02:58:02;2.70;53.70
32139;DHT22;18644;48.700;9.210;2023-03-01T03:00:34;2.70;53.70
32139;DHT22;18644;48.700;9.210;2023-03-01T03:03:06;2.70;53.60
32139;DHT22;18644;48.700;9.210;2023-03-01T03:05:33;2.80;53.60
32139;DHT22;18644;48.700;9.210;2023-03-01T03:08:03;2.80;53.50
32139;DHT22;18644;48.700;9.210;2023-03-01T03:10:31;2.90;53.60
32139;DHT22;18644;48.700;9.210;2023-03-01T03:13:03;2.90;53.60
32139;DHT22;18644;48.700;9.210;2023-03-01T03:15:33;2.90;53.50
32139;DHT22;18644;48.700;9.210;2023-03-01T03:18:02;3.00;53.50
32139;DHT22;18644;48.700;9.210;2023-03-01T03:20:30;3.00;53.50
32139;DHT22;18644;48.700;9.210;2023-03-01T03:22:58;3.00;53.50
32139;DHT22;18644;48.700;9.210;2023-03-01T03:25:25;3.00;53.50
32139;DHT22;18644;48.700;9.210;2023-03-01T03:27:54;3.00;53.50
32139;DHT22;18644;48.700;9.210;2023-03-01T03:30:25;3.10;53.40
32139;DHT22;18644;48.700;9.210;2023-03-01T03:32:54;3.10;53.40
32139;DHT22;18644;48.700;9.210;2023-03-01T03:35:23;3.10;53.50
32139;DHT22;18644;48.700;9.210;2023-03-01T03:37:52;3.10;53.40
32139;DHT22;18644;48.700;9.210;2023-03-01T03:40:30;3.10;53.40
32139;DHT22;18644;48.700;9.210;2023-03-01T03:42:58;3.20;53.40
32139;DHT22;18644;48.700;9.210;2023-03-01T03:45:25;3.20;53.30
32139;DHT22;18644;48.700;9.210;2023-03-01T03:47:53;3.20;53.30
32139;DHT22;18644;48.700;9.210;2023-03-01T03:50:20;3.20;53.30
32139;DHT22;18644;48.700;9.210;2023-03-01T03:52:49;3.20;53.20
32139;DHT22;18644;48.700;9.210;2023-03-01T03:55:16;3.20;53.20
32139;DHT22;18644;48.700;9.210;2023-03-01T03:57:46;3.30;53.30
32139;DHT22;18644;48.700;9.210;2023-03-01T04:00:17;3.30;53.30
32139;DHT22;18644;48.700;9.210;2023-03-01T04:02:46;3.30;53.30
32139;DHT22;18644;48.700;9.210;2023-03-01T04:05:17;3.30;53.30
32139;DHT22;18644;48.700;9.210;2023-03-01T04:07:45;3.30;53.20
32139;DHT22;18644;48.700;9.210;2023-03-01T04:10:15;3.30;53.20
32139;DHT22;18644;48.700;9.210;2023-03-01T04:12:43;3.30;53.20
32139;DHT22;18644;48.700;9.210;2023-03-01T04:15:11;3.40;53.20
32139;DHT22;18644;48.700;9.210;2023-03-01T04:17:42;3.40;53.20
32139;DHT22;18644;48.700;9.210;2023-03-01T04:20:11;3.40;53.20
32139;DHT22;18644;48.700;9.210;2023-03-01T04:22:40;3.40;53.20
32139;DHT22;18644;48.700;9.210;2023-03-01T04:25:08;3.40;53.20
32139;DHT22;18644;48.700;9.210;2023-03-01T04:27:40;3.40;53.20
32139;DHT22;18644;48.700;9.210;2023-03-01T04:30:08;3.50;53.20
32139;DHT22;18644;48.700;9.210;2023-03-01T04:32:36;3.40;53.20
32139;DHT22;18644;48.700;9.210;2023-03-01T04:35:04;3.50;53.20
32139;DHT22;18644;48.700;9.210;2023-03-01T04:37:31;3.50;53.20
32139;DHT22;18644;48.700;9.210;2023-03-01T04:39:59;3.50;53.20
32139;DHT22;18644;48.700;9.210;2023-03-01T04:42:26;3.50;53.10
32139;DHT22;18644;48.700;9.210;2023-03-01T04:44:53;3.50;53.20
32139;DHT22;18644;48.700;9.210;2023-03-01T04:47:20;3.50;53.70
32139;DHT22;18644;48.700;9.210;2023-03-01T04:49:46;3.50;53.10
32139;DHT22;18644;48.700;9.210;2023-03-01T04:52:13;3.50;53.10
32139;DHT22;18644;48.700;9.210;2023-03-01T04:54:40;3.50;53.10
32139;DHT22;18644;48.700;9.210;2023-03-01T04:57:09;3.50;53.10
32139;DHT22;18644;48.700;9.210;2023-03-01T04:59:37;3.60;53.10
32139;DHT22;18644;48.700;9.210;2023-03-01T05:02:04;3.60;53.10
32139;DHT22;18644;48.700;9.210;2023-03-01T05:04:31;3.60;53.10
32139;DHT22;18644;48.700;9.210;2023-03-01T05:06:57;3.60;53.10
32139;DHT22;18644;48.700;9.210;2023-03-01T05:09:25;3.60;53.10
32139;DHT22;18644;48.700;9.210;2023-03-01T05:11:53;3.60;53.00
32139;DHT22;18644;48.700;9.210;2023-03-01T05:14:21;3.60;53.10
32139;DHT22;18644;48.700;9.210;2023-03-01T05:16:48;3.60;53.00
32139;DHT22;18644;48.700;9.210;2023-03-01T05:19:15;3.60;53.00
32139;DHT22;18644;48.700;9.210;2023-03-01T05:21:48;3.60;53.10
32139;DHT22;18644;48.700;9.210;2023-03-01T05:24:32;3.60;53.10
32139;DHT22;18644;48.700;9.210;2023-03-01T05:27:00;3.70;53.10
32139;DHT22;18644;48.700;9.210;2023-03-01T05:29:30;3.70;53.00
32139;DHT22;18644;48.700;9.210;2023-03-01T05:32:01;3.60;53.00
32139;DHT22;18644;48.700;9.210;2023-03-01T05:34:30;3.70;53.30
32139;DHT22;18644;48.700;9.210;2023-03-01T05:36:58;3.70;53.10
32139;DHT22;18644;48.700;9.210;2023-03-01T05:39:27;3.70;53.20
32139;DHT22;18644;48.700;9.210;2023-03-01T05:41:58;3.70;53.10
32139;DHT22;18644;48.700;9.210;2023-03-01T05:44:27;3.70;53.10
32139;DHT22;18644;48.700;9.210;2023-03-01T05:46:55;3.70;53.10
32139;DHT22;18644;48.700;9.210;2023-03-01T05:49:23;3.70;53.10
32139;DHT22;18644;48.700;9.210;2023-03-01T05:51:51;3.80;53.20
32139;DHT22;18644;48.700;9.210;2023-03-01T05:54:20;3.80;53.20
32139;DHT22;18644;48.700;9.210;2023-03-01T05:56:50;3.80;53.20
32139;DHT22;18644;48.700;9.210;2023-03-01T05:59:17;3.80;53.10
32139;DHT22;18644;48.700;9.210;2023-03-01T06:01:45;3.80;53.10
32139;DHT22;18644;48.700;9.210;2023-03-01T06:04:12;3.80;53.20
32139;DHT22;18644;48.700;9.210;2023-03-01T06:06:39;3.80;53.10
32139;DHT22;18644;48.700;9.210;2023-03-01T06:09:07;3.90;53.10
32139;DHT22;18644;48.700;9.210;2023-03-01T06:11:35;3.90;53.10
32139;DHT22;18644;48.700;9.210;2023-03-01T06:14:02;3.90;53.10
32139;DHT22;18644;48.700;9.210;2023-03-01T06:16:30;3.80;53.00
32139;DHT22;18644;48.700;9.210;2023-03-01T06:18:58;3.90;53.00
32139;DHT22;18644;48.700;9.210;2023-03-01T06:21:25;3.90;53.00
32139;DHT22;18644;48.700;9.210;2023-03-01T06:23:52;3.90;53.00
32139;DHT22;18644;48.700;9.210;2023-03-01T06:26:19;3.90;53.00
32139;DHT22;18644;48.700;9.210;2023-03-01T06:28:46;3.90;53.00
32139;DHT22;18644;48.700;9.210;2023-03-01T06:31:13;3.90;53.00
32139;DHT22;18644;48.700;9.210;2023-03-01T06:33:40;3.90;53.00
32139;DHT22;18644;48.700;9.210;2023-03-01T06:36:09;3.90;53.00
32139;DHT22;18644;48.700;9.210;2023-03-01T06:38:36;3.90;53.00
32139;DHT22;18644;48.700;9.210;2023-03-01T06:41:03;4.00;53.00
32139;DHT22;18644;48.700;9.210;2023-03-01T06:43:30;4.00;53.00
32139;DHT22;18644;48.700;9.210;2023-03-01T06:45:57;4.00;53.00
32139;DHT22;18644;48.700;9.210;2023-03-01T06:48:24;4.00;53.10
32139;DHT22;18644;48.700;9.210;2023-03-01T06:50:51;4.10;53.10
32139;DHT22;18644;48.700;9.210;2023-03-01T06:53:20;4.10;53.10
32139;DHT22;18644;48.700;9.210;2023-03-01T06:55:47;4.10;53.00
32139;DHT22;18644;48.700;9.210;2023-03-01T06:58:13;4.10;53.00
32139;DHT22;18644;48.700;9.210;2023-03-01T07:00:40;4.10;53.00
32139;DHT22;18644;48.700;9.210;2023-03-01T07:03:09;4.20;53.00
32139;DHT22;18644;48.700;9.210;2023-03-01T07:05:35;4.20;52.90
32139;DHT22;18644;48.700;9.210;2023-03-01T07:08:02;4.20;52.90
32139;DHT22;18644;48.700;9.210;2023-03-01T07:10:31;4.20;52.90
32139;DHT22;18644;48.700;9.210;2023-03-01T07:12:59;4.20;52.90
32139;DHT22;18644;48.700;9.210;2023-03-01T07:15:28;4.30;52.90
32139;DHT22;18644;48.700;9.210;2023-03-01T07:17:56;4.20;52.80
32139;DHT22;18644;48.700;9.210;2023-03-01T07:20:23;4.20;52.80
32139;DHT22;18644;48.700;9.210;2023-03-01T07:22:50;4.20;52.80
32139;DHT22;18644;48.700;9.210;2023-03-01T07:25:17;4.30;52.80
32139;DHT22;18644;48.700;9.210;2023-03-01T07:27:50;4.20;52.70
32139;DHT22;18644;48.700;9.210;2023-03-01T07:30:18;4.30;52.80
32139;DHT22;18644;48.700;9.210;2023-03-01T07:32:45;4.30;52.90
32139;DHT22;18644;48.700;9.210;2023-03-01T07:35:12;4.40;52.90
32139;DHT22;18644;48.700;9.210;2023-03-01T07:37:40;4.40;52.90
32139;DHT22;18644;48.700;9.210;2023-03-01T07:40:08;4.40;52.90
32139;DHT22;18644;48.700;9.210;2023-03-01T07:42:36;4.40;52.90
32139;DHT22;18644;48.700;9.210;2023-03-01T07:45:06;4.50;53.00
32139;DHT22;18644;48.700;9.210;2023-03-01T07:47:34;4.50;52.90
32139;DHT22;18644;48.700;9.210;2023-03-01T07:50:00;4.60;52.90
32139;DHT22;18644;48.700;9.210;2023-03-01T07:52:28;4.60;52.90
32139;DHT22;18644;48.700;9.210;2023-03-01T07:54:56;4.70;52.90
32139;DHT22;18644;48.700;9.210;2023-03-01T07:57:23;4.80;52.90
32139;DHT22;18644;48.700;9.210;2023-03-01T07:59:50;4.80;52.80
32139;DHT22;18644;48.700;9.210;2023-03-01T08:02:18;4.80;52.80
32139;DHT22;18644;48.700;9.210;2023-03-01T08:04:45;4.90;52.70
32139;DHT22;18644;48.700;9.210;2023-03-01T08:07:12;4.90;52.70
32139;DHT22;18644;48.700;9.210;2023-03-01T08:09:39;5.00;52.60
32139;DHT22;18644;48.700;9.210;2023-03-01T08:12:06;5.10;52.70
32139;DHT22;18644;48.700;9.210;2023-03-01T08:14:33;5.20;52.70
32139;DHT22;18644;48.700;9.210;2023-03-01T08:17:00;5.20;52.50
32139;DHT22;18644;48.700;9.210;2023-03-01T08:19:29;5.30;52.50
32139;DHT22;18644;48.700;9.210;2023-03-01T08:21:57;5.40;52.50
32139;DHT22;18644;48.700;9.210;2023-03-01T08:24:25;5.40;52.40
32139;DHT22;18644;48.700;9.210;2023-03-01T08:26:52;5.50;52.50
32139;DHT22;18644;48.700;9.210;2023-03-01T08:29:20;5.60;52.40
32139;DHT22;18644;48.700;9.210;2023-03-01T08:31:47;5.60;52.30
32139;DHT22;18644;48.700;9.210;2023-03-01T08:34:17;5.70;52.30
32139;DHT22;18644;48.700;9.210;2023-03-01T08:36:46;5.80;52.20
32139;DHT22;18644;48.700;9.210;2023-03-01T08:39:15;5.90;52.10
32139;DHT22;18644;48.700;9.210;2023-03-01T08:41:44;6.00;52.00
32139;DHT22;18644;48.700;9.210;2023-03-01T08:44:12;6.00;51.90
32139;DHT22;18644;48.700;9.210;2023-03-01T08:46:41;6.10;51.80
32139;DHT22;18644;48.700;9.210;2023-03-01T08:49:12;6.20;51.60
32139;DHT22;18644;48.700;9.210;2023-03-01T08:51:40;6.30;51.50
32139;DHT22;18644;48.700;9.210;2023-03-01T08:54:12;6.40;51.50
32139;DHT22;18644;48.700;9.210;2023-03-01T08:56:40;6.50;51.50
32139;DHT22;18644;48.700;9.210;2023-03-01T08:59:09;6.50;51.40
32139;DHT22;18644;48.700;9.210;2023-03-01T09:01:36;6.60;51.20
32139;DHT22;18644;48.700;9.210;2023-03-01T09:04:03;6.70;51.10
32139;DHT22;18644;48.700;9.210;2023-03-01T09:06:31;6.80;51.00
32139;DHT22;18644;48.700;9.210;2023-03-01T09:08:59;6.90;50.90
32139;DHT22;18644;48.700;9.210;2023-03-01T09:11:28;7.00;51.40
32139;DHT22;18644;48.700;9.210;2023-03-01T09:13:55;7.00;50.70
32139;DHT22;18644;48.700;9.210;2023-03-01T09:16:26;7.10;50.50
32139;DHT22;18644;48.700;9.210;2023-03-01T09:18:55;7.10;50.40
32139;DHT22;18644;48.700;9.210;2023-03-01T09:21:23;7.30;50.40
32139;DHT22;18644;48.700;9.210;2023-03-01T09:23:50;7.30;50.30
32139;DHT22;18644;48.700;9.210;2023-03-01T09:26:19;7.40;50.20
32139;DHT22;18644;48.700;9.210;2023-03-01T09:28:52;7.50;50.10
32139;DHT22;18644;48.700;9.210;2023-03-01T09:31:21;7.60;49.80
32139;DHT22;18644;48.700;9.210;2023-03-01T09:33:50;7.70;49.60
32139;DHT22;18644;48.700;9.210;2023-03-01T09:36:20;7.70;49.40
32139;DHT22;18644;48.700;9.210;2023-03-01T09:38:50;7.80;49.40
32139;DHT22;18644;48.700;9.210;2023-03-01T09:41:38;7.90;49.30
32139;DHT22;18644;48.700;9.210;2023-03-01T09:44:16;8.00;49.20
32139;DHT22;18644;48.700;9.210;2023-03-01T09:46:48;8.00;49.20
32139;DHT22;18644;48.700;9.210;2023-03-01T09:49:19;8.10;48.80
32139;DHT22;18644;48.700;9.210;2023-03-01T09:51:58;8.20;48.70
32139;DHT22;18644;48.700;9.210;2023-03-01T09:54:27;8.30;48.70
32139;DHT22;18644;48.700;9.210;2023-03-01T09:57:02;8.30;48.70
32139;DHT22;18644;48.700;9.210;2023-03-01T09:59:43;8.50;48.60
32139;DHT22;18644;48.700;9.210;2023-03-01T10:02:24;8.50;48.60
32139;DHT22;18644;48.700;9.210;2023-03-01T10:04:57;8.70;48.60
32139;DHT22;18644;48.700;9.210;2023-03-01T10:07:35;8.80;48.40
32139;DHT22;18644;48.700;9.210;2023-03-01T10:10:11;8.90;48.30
32139;DHT22;18644;48.700;9.210;2023-03-01T10:12:45;9.00;48.30
32139;DHT22;18644;48.700;9.210;2023-03-01T10:15:15;9.10;48.20
32139;DHT22;18644;48.700;9.210;2023-03-01T10:17:48;9.30;48.10
32139;DHT22;18644;48.700;9.210;2023-03-01T10:20:20;9.40;48.00
32139;DHT22;18644;48.700;9.210;2023-03-01T10:22:48;9.50;47.70
32139;DHT22;18644;48.700;9.210;2023-03-01T10:25:27;9.60;47.30
32139;DHT22;18644;48.700;9.210;2023-03-01T10:28:10;9.70;47.10
32139;DHT22;18644;48.700;9.210;2023-03-01T10:30:53;9.70;46.70
32139;DHT22;18644;48.700;9.210;2023-03-01T10:33:26;9.80;46.80
32139;DHT22;18644;48.700;9.210;2023-03-01T10:35:56;9.90;46.80
32139;DHT22;18644;48.700;9.210;2023-03-01T10:38:23;10.00;46.90
32139;DHT22;18644;48.700;9.210;2023-03-01T10:40:53;10.10;46.80
32139;DHT22;18644;48.700;9.210;2023-03-01T10:43:22;10.20;46.70
32139;DHT22;18644;48.700;9.210;2023-03-01T10:45:50;10.30;46.90
32139;DHT22;18644;48.700;9.210;2023-03-01T10:48:20;10.50;47.00
32139;DHT22;18644;48.700;9.210;2023-03-01T10:51:05;10.60;46.50
32139;DHT22;18644;48.700;9.210;2023-03-01T10:53:34;10.70;46.10
32139;DHT22;18644;48.700;9.210;2023-03-01T10:56:04;10.80;46.50
32139;DHT22;18644;48.700;9.210;2023-03-01T10:58:33;11.00;46.30
32139;DHT22;18644;48.700;9.210;2023-03-01T11:01:04;11.10;45.70
32139;DHT22;18644;48.700;9.210;2023-03-01T11:03:34;11.10;45.10
32139;DHT22;18644;48.700;9.210;2023-03-01T11:06:04;11.20;45.00
32139;DHT22;18644;48.700;9.210;2023-03-01T11:08:38;11.20;44.70
32139;DHT22;18644;48.700;9.210;2023-03-01T11:11:18;11.30;44.60
32139;DHT22;18644;48.700;9.210;2023-03-01T11:13:54;11.30;44.60
32139;DHT22;18644;48.700;9.210;2023-03-01T11:16:32;11.40;45.00
32139;DHT22;18644;48.700;9.210;2023-03-01T11:19:17;11.50;44.90
32139;DHT22;18644;48.700;9.210;2023-03-01T11:21:56;11.70;44.70
32139;DHT22;18644;48.700;9.210;2023-03-01T11:24:37;11.90;44.60
32139;DHT22;18644;48.700;9.210;2023-03-01T11:27:16;12.00;44.70
32139;DHT22;18644;48.700;9.210;2023-03-01T11:29:46;12.10;44.20
32139;DHT22;18644;48.700;9.210;2023-03-01T11:32:19;12.20;44.00
32139;DHT22;18644;48.700;9.210;2023-03-01T11:34:51;12.30;44.00
32139;DHT22;18644;48.700;9.210;2023-03-01T11:37:28;12.40;43.90
32139;DHT22;18644;48.700;9.210;2023-03-01T11:40:05;12.40;43.70
32139;DHT22;18644;48.700;9.210;2023-03-01T11:42:48;12.50;43.50
32139;DHT22;18644;48.700;9.210;2023-03-01T11:45:19;12.60;43.20
32139;DHT22;18644;48.700;9.210;2023-03-01T11:48:00;12.70;43.10
32139;DHT22;18644;48.700;9.210;2023-03-01T11:50:40;12.70;42.90
32139;DHT22;18644;48.700;9.210;2023-03-01T11:53:24;12.80;42.90
32139;DHT22;18644;48.700;9.210;2023-03-01T11:56:10;12.90;42.70
32139;DHT22;18644;48.700;9.210;2023-03-01T12:01:55;13.10;42.90
32139;DHT22;18644;48.700;9.210;2023-03-01T12:04:47;13.20;42.40
32139;DHT22;18644;48.700;9.210;2023-03-01T12:07:46;13.30;41.90
32139;DHT22;18644;48.700;9.210;2023-03-01T12:10:22;13.30;41.90
32139;DHT22;18644;48.700;9.210;2023-03-01T12:13:14;13.30;42.00
32139;DHT22;18644;48.700;9.210;2023-03-01T12:16:00;13.40;41.80
32139;DHT22;18644;48.700;9.210;2023-03-01T12:18:49;13.40;41.40
32139;DHT22;18644;48.700;9.210;2023-03-01T12:21:34;13.40;41.40
32139;DHT22;18644;48.700;9.210;2023-03-01T12:24:34;13.40;41.50
32139;DHT22;18644;48.700;9.210;2023-03-01T12:27:18;13.40;41.30
32139;DHT22;18644;48.700;9.210;2023-03-01T12:29:56;13.50;41.50
32139;DHT22;18644;48.700;9.210;2023-03-01T12:32:44;13.60;41.40
32139;DHT22;18644;48.700;9.210;2023-03-01T12:35:23;13.70;41.30
32139;DHT22;18644;48.700;9.210;2023-03-01T12:38:06;13.70;41.00
32139;DHT22;18644;48.700;9.210;2023-03-01T12:41:02;13.80;40.90
32139;DHT22;18644;48.700;9.210;2023-03-01T12:43:49;13.90;41.10
32139;DHT22;18644;48.700;9.210;2023-03-01T12:46:31;13.90;40.50
32139;DHT22;18644;48.700;9.210;2023-03-01T12:49:05;14.00;40.20
32139;DHT22;18644;48.700;9.210;2023-03-01T12:51:37;14.00;40.40
32139;DHT22;18644;48.700;9.210;2023-03-01T12:54:15;14.10;40.90
32139;DHT22;18644;48.700;9.210;2023-03-01T12:56:44;14.10;40.40
32139;DHT22;18644;48.700;9.210;2023-03-01T12:59:21;14.10;40.40
32139;DHT22;18644;48.700;9.210;2023-03-01T13:01:57;14.10;39.60
32139;DHT22;18644;48.700;9.210;2023-03-01T13:04:37;14.10;39.60
32139;DHT22;18644;48.700;9.210;2023-03-01T13:07:21;14.10;39.80
32139;DHT22;18644;48.700;9.210;2023-03-01T13:10:08;14.10;40.10
32139;DHT22;18644;48.700;9.210;2023-03-01T13:12:57;14.20;40.10
32139;DHT22;18644;48.700;9.210;2023-03-01T13:15:34;14.30;39.80
32139;DHT22;18644;48.700;9.210;2023-03-01T13:18:04;14.30;39.70
32139;DHT22;18644;48.700;9.210;2023-03-01T13:20:53;14.30;39.30
32139;DHT22;18644;48.700;9.210;2023-03-01T13:23:28;14.30;39.50
32139;DHT22;18644;48.700;9.210;2023-03-01T13:26:10;14.30;39.70
32139;DHT22;18644;48.700;9.210;2023-03-01T13:28:57;14.30;39.30
32139;DHT22;18644;48.700;9.210;2023-03-01T13:31:59;14.30;38.70
32139;DHT22;18644;48.700;9.210;2023-03-01T13:34:53;14.40;38.60
32139;DHT22;18644;48.700;9.210;2023-03-01T13:37:24;14.40;38.50
32139;DHT22;18644;48.700;9.210;2023-03-01T13:39:55;14.40;39.10
32139;DHT22;18644;48.700;9.210;2023-03-01T13:42:38;14.40;39.30
32139;DHT22;18644;48.700;9.210;2023-03-01T13:45:20;14.50;39.20
32139;DHT22;18644;48.700;9.210;2023-03-01T13:47:54;14.50;39.20
32139;DHT22;18644;48.700;9.210;2023-03-01T13:50:25;14.60;39.10
32139;DHT22;18644;48.700;9.210;2023-03-01T13:52:56;14.70;39.00
32139;DHT22;18644;48.700;9.210;2023-03-01T13:55:30;14.70;38.80
32139;DHT22;18644;48.700;9.210;2023-03-01T13:58:15;14.70;38.50
32139;DHT22;18644;48.700;9.210;2023-03-01T14:00:46;14.80;38.50
32139;DHT22;18644;48.700;9.210;2023-03-01T14:03:15;14.80;38.80
32139;DHT22;18644;48.700;9.210;2023-03-01T14:05:59;14.90;38.50
32139;DHT22;18644;48.700;9.210;2023-03-01T14:08:29;14.90;38.30
32139;DHT22;18644;48.700;9.210;2023-03-01T14:11:09;14.90;38.30
32139;DHT22;18644;48.700;9.210;2023-03-01T14:13:59;14.90;37.80
32139;DHT22;18644;48.700;9.210;2023-03-01T14:16:40;14.90;37.60
32139;DHT22;18644;48.700;9.210;2023-03-01T14:19:16;14.90;37.70
32139;DHT22;18644;48.700;9.210;2023-03-01T14:21:46;14.90;37.50
32139;DHT22;18644;48.700;9.210;2023-03-01T14:24:17;14.80;37.60
32139;DHT22;18644;48.700;9.210;2023-03-01T14:26:45;14.80;37.80
32139;DHT22;18644;48.700;9.210;2023-03-01T14:29:27;14.90;38.00
32139;DHT22;18644;48.700;9.210;2023-03-01T14:31:55;14.90;38.00
32139;DHT22;18644;48.700;9.210;2023-03-01T14:34:35;14.90;38.20
32139;DHT22;18644;48.700;9.210;2023-03-01T14:37:10;14.90;38.10
32139;DHT22;18644;48.700;9.210;2023-03-01T14:39:38;14.80;37.20
32139;DHT22;18644;48.700;9.210;2023-03-01T14:42:05;14.70;36.80
32139;DHT22;18644;48.700;9.210;2023-03-01T14:44:34;14.60;37.10
32139;DHT22;18644;48.700;9.210;2023-03-01T14:47:03;14.50;37.40
32139;DHT22;18644;48.700;9.210;2023-03-01T14:49:32;14.40;37.70
32139;DHT22;18644;48.700;9.210;2023-03-01T14:52:01;14.40;37.80
32139;DHT22;18644;48.700;9.210;2023-03-01T14:54:36;14.40;38.60
32139;DHT22;18644;48.700;9.210;2023-03-01T14:57:12;14.40;37.40
32139;DHT22;18644;48.700;9.210;2023-03-01T14:59:43;14.40;37.50
32139;DHT22;18644;48.700;9.210;2023-03-01T15:02:14;14.30;37.40
32139;DHT22;18644;48.700;9.210;2023-03-01T15:04:47;14.30;37.70
32139;DHT22;18644;48.700;9.210;2023-03-01T15:07:17;14.30;37.80
32139;DHT22;18644;48.700;9.210;2023-03-01T15:09:45;14.40;38.00
32139;DHT22;18644;48.700;9.210;2023-03-01T15:12:34;14.40;37.90
32139;DHT22;18644;48.700;9.210;2023-03-01T15:15:30;14.40;37.40
32139;DHT22;18644;48.700;9.210;2023-03-01T15:18:00;14.50;37.30
32139;DHT22;18644;48.700;9.210;2023-03-01T15:20:29;14.40;37.50
32139;DHT22;18644;48.700;9.210;2023-03-01T15:23:01;14.40;37.30
32139;DHT22;18644;48.700;9.210;2023-03-01T15:25:30;14.40;37.30
32139;DHT22;18644;48.700;9.210;2023-03-01T15:27:59;14.30;37.10
32139;DHT22;18644;48.700;9.210;2023-03-01T15:30:31;14.30;36.90
32139;DHT22;18644;48.700;9.210;2023-03-01T15:33:18;14.20;37.00
32139;DHT22;18644;48.700;9.210;2023-03-01T15:35:48;14.20;37.10
32139;DHT22;18644;48.700;9.210;2023-03-01T15:38:28;14.10;37.00
32139;DHT22;18644;48.700;9.210;2023-03-01T15:41:01;14.00;37.40
32139;DHT22;18644;48.700;9.210;2023-03-01T15:43:43;14.00;37.00
32139;DHT22;18644;48.700;9.210;2023-03-01T15:46:20;13.90;36.90
32139;DHT22;18644;48.700;9.210;2023-03-01T15:48:52;13.90;36.90
32139;DHT22;18644;48.700;9.210;2023-03-01T15:51:27;13.80;37.20
32139;DHT22;18644;48.700;9.210;2023-03-01T15:54:01;13.70;37.30
32139;DHT22;18644;48.700;9.210;2023-03-01T15:56:30;13.70;37.40
32139;DHT22;18644;48.700;9.210;2023-03-01T15:59:01;13.60;37.40
32139;DHT22;18644;48.700;9.210;2023-03-01T16:01:30;13.60;37.40
32139;DHT22;18644;48.700;9.210;2023-03-01T16:03:59;13.60;37.40
32139;DHT22;18644;48.700;9.210;2023-03-01T16:06:26;13.50;37.40
32139;DHT22;18644;48.700;9.210;2023-03-01T16:08:53;13.40;37.10
32139;DHT22;18644;48.700;9.210;2023-03-01T16:11:20;13.30;37.20